createdAt,value
2019-02-06T00:00:44.057Z,101354.30
2019-02-06T00:03:19.176Z,101354.28
2019-02-06T00:05:51.992Z,101357.28
2019-02-06T00:08:22.657Z,101361.16
2019-02-06T00:10:56.263Z,101361.12
2019-02-06T00:13:26.777Z,101352.91
2019-02-06T00:15:57.195Z,101352.02
2019-02-06T00:18:27.623Z,101355.50
2019-02-06T00:20:58.093Z,101348.14
2019-02-06T00:23:28.550Z,101352.00
2019-02-06T00:25:59.103Z,101346.41
2019-02-06T00:28:29.721Z,101351.97
2019-02-06T00:31:03.102Z,101347.64
2019-02-06T00:33:33.594Z,101348.47
2019-02-06T00:36:04.159Z,101341.57
2019-02-06T00:38:34.681Z,101342.00
2019-02-06T00:41:05.326Z,101329.92
2019-02-06T00:43:35.867Z,101332.91
2019-02-06T00:46:06.311Z,101334.20
2019-02-06T00:48:36.758Z,101329.42
2019-02-06T00:51:07.286Z,101328.09
2019-02-06T00:53:38.502Z,101327.66
2019-02-06T00:56:12.266Z,101322.90
2019-02-06T00:58:45.716Z,101317.25
2019-02-06T01:01:16.086Z,101320.27
2019-02-06T01:03:46.487Z,101323.30
2019-02-06T01:06:16.845Z,101313.81
2019-02-06T01:08:47.648Z,101305.63
2019-02-06T01:11:18.005Z,101306.84
2019-02-06T01:13:48.405Z,101298.69
2019-02-06T01:16:18.827Z,101300.35
2019-02-06T01:18:49.274Z,101289.08
2019-02-06T01:21:19.661Z,101286.45
2019-02-06T01:23:52.247Z,101295.09
2019-02-06T01:26:22.562Z,101293.32
2019-02-06T01:28:53.010Z,101285.12
2019-02-06T01:31:25.394Z,101290.26
2019-02-06T01:33:55.922Z,101285.94
2019-02-06T01:36:26.906Z,101286.41
2019-02-06T01:38:57.378Z,101294.55
2019-02-06T01:41:27.787Z,101287.19
2019-02-06T01:43:58.318Z,101276.02
2019-02-06T01:46:28.799Z,101280.34
2019-02-06T01:48:59.290Z,101275.12
2019-02-06T01:51:29.749Z,101281.13
2019-02-06T01:54:00.427Z,101279.36
2019-02-06T01:56:30.896Z,101271.16
2019-02-06T01:59:01.338Z,101262.91
2019-02-06T02:01:31.764Z,101263.38
2019-02-06T02:04:02.175Z,101259.53
2019-02-06T02:06:32.644Z,101252.61
2019-02-06T02:09:07.540Z,101255.62
2019-02-06T02:11:40.255Z,101251.74
2019-02-06T02:14:12.888Z,101247.41
2019-02-06T02:16:43.497Z,101239.25
2019-02-06T02:19:14.419Z,101233.64
2019-02-06T02:21:44.953Z,101222.39
2019-02-06T02:24:18.492Z,101227.99
2019-02-06T02:26:49.168Z,101221.96
2019-02-06T02:29:19.631Z,101214.62
2019-02-06T02:31:50.074Z,101211.63
2019-02-06T02:34:20.492Z,101206.03
2019-02-06T02:36:50.924Z,101196.15
2019-02-06T02:39:21.435Z,101190.93
2019-02-06T02:41:51.799Z,101190.02
2019-02-06T02:44:22.891Z,101187.03
2019-02-06T02:46:55.411Z,101181.00
2019-02-06T02:49:26.123Z,101175.76
2019-02-06T02:51:58.595Z,101176.63
2019-02-06T02:54:29.055Z,101167.98
2019-02-06T02:56:59.804Z,101168.89
2019-02-06T02:59:30.264Z,101166.33
2019-02-06T03:02:18.040Z,101161.94
2019-02-06T03:04:52.839Z,101160.64
2019-02-06T03:07:23.406Z,101164.53
2019-02-06T03:09:53.905Z,101145.12
2019-02-06T03:12:24.347Z,101144.23
2019-02-06T03:14:54.834Z,101138.64
2019-02-06T03:17:25.198Z,101141.61
2019-02-06T03:19:55.601Z,101131.70
2019-02-06T03:22:26.000Z,101136.42
2019-02-06T03:24:56.373Z,101128.67
2019-02-06T03:27:26.999Z,101120.47
2019-02-06T03:29:57.434Z,101119.56
2019-02-06T03:32:27.928Z,101119.58
2019-02-06T03:34:58.629Z,101114.45
2019-02-06T03:37:29.325Z,101115.67
2019-02-06T03:40:00.221Z,101116.94
2019-02-06T03:42:32.463Z,101104.81
2019-02-06T03:45:02.853Z,101111.27
2019-02-06T03:47:33.287Z,101110.78
2019-02-06T03:50:06.702Z,101106.53
2019-02-06T03:52:38.747Z,101091.88
2019-02-06T03:55:11.738Z,101093.98
2019-02-06T03:57:42.087Z,101094.41
2019-02-06T04:00:14.453Z,101087.52
2019-02-06T04:02:45.197Z,101088.41
2019-02-06T04:05:15.923Z,101081.09
2019-02-06T04:07:46.283Z,101081.93
2019-02-06T04:10:16.755Z,101080.19
2019-02-06T04:12:47.227Z,101069.87
2019-02-06T04:15:18.250Z,101073.74
2019-02-06T04:17:48.513Z,101056.50
2019-02-06T04:20:19.077Z,101070.28
2019-02-06T04:22:49.507Z,101063.83
2019-02-06T04:25:21.701Z,101063.34
2019-02-06T04:27:55.437Z,101065.47
2019-02-06T04:30:25.853Z,101056.02
2019-02-06T04:32:56.258Z,101054.75
2019-02-06T04:35:26.679Z,101050.41
2019-02-06T04:37:57.070Z,101039.63
2019-02-06T04:40:29.786Z,101044.80
2019-02-06T04:43:03.212Z,101034.45
2019-02-06T04:45:33.884Z,101024.48
2019-02-06T04:48:04.295Z,101018.44
2019-02-06T04:50:34.664Z,101013.72
2019-02-06T04:53:05.915Z,101021.88
2019-02-06T04:55:36.336Z,101017.58
2019-02-06T04:58:06.834Z,101014.15
2019-02-06T05:00:37.263Z,101014.17
2019-02-06T05:03:07.670Z,101013.70
2019-02-06T05:05:38.056Z,101007.66
2019-02-06T05:08:10.250Z,101008.06
2019-02-06T05:10:42.079Z,101007.69
2019-02-06T05:13:12.614Z,100998.63
2019-02-06T05:15:43.042Z,100990.02
2019-02-06T05:18:13.493Z,100985.30
2019-02-06T05:20:44.944Z,100990.90
2019-02-06T05:23:15.625Z,100982.27
2019-02-06T05:25:46.709Z,100975.38
2019-02-06T05:28:18.185Z,100965.50
2019-02-06T05:30:48.947Z,100958.66
2019-02-06T05:33:21.476Z,100954.78
2019-02-06T05:36:13.626Z,100956.94
2019-02-06T05:38:47.617Z,100956.55
2019-02-06T05:41:18.185Z,100954.78
2019-02-06T05:43:48.689Z,100952.20
2019-02-06T05:46:19.485Z,100948.34
2019-02-06T05:48:49.965Z,100953.08
2019-02-06T05:51:20.375Z,100944.92
2019-02-06T05:53:50.792Z,100942.31
2019-02-06T05:56:21.249Z,100941.47
2019-02-06T05:58:51.707Z,100941.91
2019-02-06T06:01:25.671Z,100939.23
2019-02-06T06:03:56.095Z,100937.89
2019-02-06T06:06:26.579Z,100927.93
2019-02-06T06:08:57.001Z,100928.81
2019-02-06T06:11:27.463Z,100932.69
2019-02-06T06:14:01.898Z,100924.44
2019-02-06T06:16:32.528Z,100927.91
2019-02-06T06:19:05.971Z,100921.06
2019-02-06T06:21:44.387Z,100915.03
2019-02-06T06:24:14.944Z,100917.59
2019-02-06T06:26:45.369Z,100918.91
2019-02-06T06:29:15.752Z,100910.70
2019-02-06T06:31:46.179Z,100913.27
2019-02-06T06:34:21.057Z,100902.47
2019-02-06T06:36:51.471Z,100893.95
2019-02-06T06:39:23.775Z,100896.57
2019-02-06T06:41:54.370Z,100900.42
2019-02-06T06:44:27.199Z,100898.25
2019-02-06T06:46:58.544Z,100888.83
2019-02-06T06:49:29.005Z,100882.77
2019-02-06T06:51:59.677Z,100860.69
2019-02-06T06:54:30.490Z,100845.12
2019-02-06T06:57:01.084Z,100849.89
2019-02-06T06:59:31.539Z,100840.81
2019-02-06T07:02:04.342Z,100836.49
2019-02-06T07:04:34.723Z,100831.74
2019-02-06T07:07:05.208Z,100835.66
2019-02-06T07:09:36.184Z,100828.05
2019-02-06T07:12:08.847Z,100830.58
2019-02-06T07:14:41.530Z,100834.48
2019-02-06T07:17:11.988Z,100821.61
2019-02-06T07:19:42.517Z,100828.05
2019-02-06T07:22:12.983Z,100827.20
2019-02-06T07:24:43.908Z,100830.20
2019-02-06T07:27:16.428Z,100822.92
2019-02-06T07:29:47.129Z,100825.91
2019-02-06T07:32:20.971Z,100831.55
2019-02-06T07:34:54.351Z,100843.19
2019-02-06T07:37:26.362Z,100847.92
2019-02-06T07:40:09.816Z,100842.76
2019-02-06T07:42:41.406Z,100836.78
2019-02-06T07:45:12.536Z,100834.23
2019-02-06T07:47:42.963Z,100840.69
2019-02-06T07:50:19.123Z,100834.30
2019-02-06T07:52:52.373Z,100824.87
2019-02-06T07:55:22.918Z,100829.16
2019-02-06T07:57:55.023Z,100831.34
2019-02-06T08:00:25.514Z,100831.80
2019-02-06T08:02:56.702Z,100843.89
2019-02-06T08:05:27.358Z,100834.45
2019-02-06T08:07:58.080Z,100831.91
2019-02-06T08:10:31.538Z,100835.38
2019-02-06T08:13:02.152Z,100833.66
2019-02-06T08:15:32.920Z,100834.14
2019-02-06T08:18:03.280Z,100831.09
2019-02-06T08:20:33.685Z,100824.23
2019-02-06T08:23:04.380Z,100834.58
2019-02-06T08:25:34.759Z,100835.45
2019-02-06T08:28:05.171Z,100830.72
2019-02-06T08:30:37.762Z,100830.30
2019-02-06T08:33:09.760Z,100828.59
2019-02-06T08:35:40.527Z,100834.20
2019-02-06T08:38:16.682Z,100836.79
2019-02-06T08:40:47.636Z,100844.55
2019-02-06T08:43:18.122Z,100845.02
2019-02-06T08:45:51.279Z,100847.16
2019-02-06T08:48:21.695Z,100845.45
2019-02-06T08:50:52.259Z,100841.57
2019-02-06T08:53:22.875Z,100850.66
2019-02-06T08:55:53.428Z,100837.74
2019-02-06T08:58:26.895Z,100841.60
2019-02-06T09:00:57.511Z,100847.23
2019-02-06T09:03:28.265Z,100846.39
2019-02-06T09:05:58.708Z,100837.75
2019-02-06T09:08:29.452Z,100837.80
2019-02-06T09:11:00.032Z,100842.10
2019-02-06T09:13:31.131Z,100837.34
2019-02-06T09:16:01.814Z,100846.41
2019-02-06T09:18:34.053Z,100850.77
2019-02-06T09:21:07.929Z,100852.94
2019-02-06T09:23:38.677Z,100851.66
2019-02-06T09:26:09.613Z,100856.84
2019-02-06T09:28:42.401Z,100848.20
2019-02-06T09:31:13.263Z,100851.24
2019-02-06T09:33:43.690Z,100849.53
2019-02-06T09:36:14.447Z,100852.97
2019-02-06T09:38:45.166Z,100847.36
2019-02-06T09:41:15.729Z,100845.22
2019-02-06T09:43:46.268Z,100840.91
2019-02-06T09:46:16.685Z,100842.62
2019-02-06T09:48:47.130Z,100833.54
2019-02-06T09:51:19.330Z,100834.84
2019-02-06T09:53:50.389Z,100836.97
2019-02-06T09:56:20.831Z,100839.55
2019-02-06T09:58:51.698Z,100838.70
2019-02-06T10:01:22.259Z,100845.59
2019-02-06T10:03:52.729Z,100838.67
2019-02-06T10:06:23.119Z,100842.98
2019-02-06T10:08:54.173Z,100840.80
2019-02-06T10:11:24.591Z,100842.07
2019-02-06T10:13:59.967Z,100836.86
2019-02-06T10:16:30.990Z,100832.94
2019-02-06T10:19:01.600Z,100824.33
2019-02-06T10:21:32.917Z,100822.56
2019-02-06T10:24:06.271Z,100829.90
2019-02-06T10:26:38.963Z,100826.44
2019-02-06T10:29:11.977Z,100828.11
2019-02-06T10:31:42.618Z,100837.63
2019-02-06T10:34:13.121Z,100831.53
2019-02-06T10:36:43.956Z,100833.69
2019-02-06T10:39:14.678Z,100821.11
2019-02-06T10:41:47.189Z,100824.14
2019-02-06T10:44:17.642Z,100819.39
2019-02-06T10:46:48.388Z,100814.14
2019-02-06T10:49:21.753Z,100815.86
2019-02-06T10:51:52.381Z,100812.84
2019-02-06T10:54:22.839Z,100803.33
2019-02-06T10:56:53.275Z,100791.61
2019-02-06T10:59:23.810Z,100787.65
2019-02-06T11:01:54.650Z,100785.02
2019-02-06T11:04:25.370Z,100783.33
2019-02-06T11:06:56.434Z,100781.95
2019-02-06T11:09:26.915Z,100776.72
2019-02-06T11:11:57.449Z,100772.73
2019-02-06T11:14:29.060Z,100763.70
2019-02-06T11:17:01.219Z,100763.75
2019-02-06T11:19:31.516Z,100753.84
2019-02-06T11:22:01.920Z,100753.84
2019-02-06T11:24:32.505Z,100748.60
2019-02-06T11:27:03.042Z,100742.88
2019-02-06T11:29:33.409Z,100749.74
2019-02-06T11:32:05.269Z,100748.36
2019-02-06T11:34:35.710Z,100744.84
2019-02-06T11:37:06.378Z,100740.47
2019-02-06T11:39:36.813Z,100736.51
2019-02-06T11:42:07.208Z,100732.59
2019-02-06T11:44:37.820Z,100733.92
2019-02-06T11:47:08.227Z,100726.61
2019-02-06T11:49:40.969Z,100728.68
2019-02-06T11:52:12.028Z,100719.02
2019-02-06T11:54:42.624Z,100713.00
2019-02-06T11:57:16.631Z,100705.63
2019-02-06T11:59:47.108Z,100693.48
2019-02-06T12:02:22.468Z,100685.18
2019-02-06T12:04:53.082Z,100690.75
2019-02-06T12:07:24.103Z,100681.22
2019-02-06T12:09:54.421Z,100688.09
2019-02-06T12:12:24.873Z,100687.16
2019-02-06T12:14:55.834Z,100679.78
2019-02-06T12:17:26.235Z,100675.80
2019-02-06T12:19:56.689Z,100678.80
2019-02-06T12:22:29.189Z,100661.44
2019-02-06T12:24:59.622Z,100649.28
2019-02-06T12:27:30.206Z,100646.62
2019-02-06T12:30:00.779Z,100645.16
2019-02-06T12:32:31.235Z,100632.20
2019-02-06T12:35:03.100Z,100642.92
2019-02-06T12:37:33.600Z,100622.75
2019-02-06T12:40:07.375Z,100577.12
2019-02-06T12:42:37.921Z,100572.28
2019-02-06T12:45:08.675Z,100563.50
2019-02-06T12:47:44.576Z,100555.56
2019-02-06T12:50:15.591Z,100548.55
2019-02-06T12:52:46.054Z,100549.69
2019-02-06T12:55:19.763Z,100543.84
2019-02-06T12:57:50.669Z,100531.95
2019-02-06T13:00:32.102Z,100527.77
2019-02-06T13:03:03.094Z,100526.86
2019-02-06T13:05:34.785Z,100523.56
2019-02-06T13:08:06.376Z,100513.88
2019-02-06T13:10:37.077Z,100516.03
2019-02-06T13:13:07.713Z,100504.60
2019-02-06T13:15:38.472Z,100500.29
2019-02-06T13:18:09.517Z,100498.40
2019-02-06T13:20:40.095Z,100487.79
2019-02-06T13:23:10.521Z,100487.13
2019-02-06T13:25:41.055Z,100490.41
2019-02-06T13:28:11.968Z,100488.05
2019-02-06T13:30:43.052Z,100480.89
2019-02-06T13:33:13.517Z,100478.58
2019-02-06T13:35:44.566Z,100480.82
2019-02-06T13:38:15.067Z,100482.66
2019-02-06T13:40:46.253Z,100477.37
2019-02-06T13:43:16.897Z,100479.55
2019-02-06T13:45:48.278Z,100467.78
2019-02-06T13:48:18.744Z,100475.90
2019-02-06T13:50:49.528Z,100474.23
2019-02-06T13:53:20.068Z,100463.30
2019-02-06T13:55:51.439Z,100459.34
2019-02-06T13:58:22.095Z,100456.67
2019-02-06T14:00:52.711Z,100455.19
2019-02-06T14:03:26.617Z,100453.02
2019-02-06T14:05:57.162Z,100450.77
2019-02-06T14:08:28.042Z,100450.15
2019-02-06T14:11:00.871Z,100438.22
2019-02-06T14:13:31.183Z,100433.02
2019-02-06T14:16:04.091Z,100418.25
2019-02-06T14:18:34.894Z,100407.81
2019-02-06T14:21:09.847Z,100409.04
2019-02-06T14:24:29.453Z,100407.30
2019-02-06T14:27:15.824Z,100401.33
2019-02-06T14:30:29.014Z,100396.08
2019-02-06T14:33:48.344Z,100393.70
2019-02-06T14:36:53.755Z,100389.31
2019-02-06T14:39:55.561Z,100385.70
2019-02-06T14:42:57.442Z,100392.45
2019-02-06T14:46:22.628Z,100387.34
2019-02-06T14:49:35.852Z,100381.34
2019-02-06T14:52:48.547Z,100379.31
2019-02-06T14:55:53.264Z,100390.14
2019-02-06T14:58:59.712Z,100386.63
2019-02-06T15:02:16.605Z,100377.97
2019-02-06T15:05:24.089Z,100370.19
2019-02-06T15:08:37.292Z,100357.98
2019-02-06T15:11:57.560Z,100363.73
2019-02-06T15:14:55.920Z,100351.14
2019-02-06T15:18:22.083Z,100354.97
2019-02-06T15:21:30.903Z,100358.38
2019-02-06T15:24:41.268Z,100356.64
2019-02-06T15:27:55.462Z,100347.16
2019-02-06T15:30:54.328Z,100344.98
2019-02-06T15:34:11.616Z,100330.72
2019-02-06T15:37:28.977Z,100320.41
2019-02-06T15:40:27.096Z,100315.66
2019-02-06T15:43:31.508Z,100306.65
2019-02-06T15:46:40.232Z,100296.69
2019-02-06T15:49:31.599Z,100293.69
2019-02-06T15:52:39.675Z,100302.09
2019-02-06T15:56:12.097Z,100298.16
2019-02-06T15:59:11.998Z,100286.89
2019-02-06T16:02:26.192Z,100288.27
2019-02-06T16:05:53.988Z,100296.09
2019-02-06T16:09:10.418Z,100299.20
2019-02-06T16:12:15.901Z,100284.11
2019-02-06T16:15:27.693Z,100287.16
2019-02-06T16:18:26.161Z,100287.98
2019-02-06T16:21:23.281Z,100282.77
2019-02-06T16:24:09.576Z,100279.01
2019-02-06T16:27:12.034Z,100268.59
2019-02-06T16:30:19.414Z,100274.27
2019-02-06T16:33:30.231Z,100274.34
2019-02-06T16:36:31.780Z,100270.58
2019-02-06T16:39:30.096Z,100268.09
2019-02-06T16:42:40.000Z,100262.08
2019-02-06T16:45:59.728Z,100266.45
2019-02-06T16:49:07.349Z,100255.23
2019-02-06T16:52:13.912Z,100263.88
2019-02-06T16:55:22.315Z,100264.83
2019-02-06T16:58:22.588Z,100258.31
2019-02-06T17:01:34.271Z,100257.48
2019-02-06T17:04:48.263Z,100255.48
2019-02-06T17:07:31.869Z,100261.59
2019-02-06T17:11:01.511Z,100261.23
2019-02-06T17:14:20.031Z,100253.92
2019-02-06T17:17:18.571Z,100237.97
2019-02-06T17:20:16.031Z,100242.31
2019-02-06T17:23:10.540Z,100238.58
2019-02-06T17:26:18.077Z,100229.94
2019-02-06T17:29:47.653Z,100233.11
2019-02-06T17:33:08.130Z,100230.57
2019-02-06T17:36:05.760Z,100221.59
2019-02-06T17:39:24.194Z,100228.17
2019-02-06T17:42:45.521Z,100221.73
2019-02-06T17:46:14.601Z,100221.70
2019-02-06T17:49:25.747Z,100222.59
2019-02-06T17:52:32.860Z,100220.66
2019-02-06T17:55:20.488Z,100224.06
2019-02-06T17:57:53.129Z,100219.12
2019-02-06T18:00:47.530Z,100214.41
2019-02-06T18:03:17.949Z,100218.84
2019-02-06T18:05:49.464Z,100215.01
2019-02-06T18:08:19.955Z,100212.93
2019-02-06T18:10:50.394Z,100211.26
2019-02-06T18:13:24.097Z,100203.52
2019-02-06T18:15:54.540Z,100205.81
2019-02-06T18:18:27.382Z,100196.22
2019-02-06T18:20:57.776Z,100201.10
2019-02-06T18:23:28.255Z,100200.27
2019-02-06T18:25:58.670Z,100193.42
2019-02-06T18:28:29.311Z,100187.36
2019-02-06T18:30:59.876Z,100183.98
2019-02-06T18:33:31.588Z,100171.05
2019-02-06T18:36:02.615Z,100172.87
2019-02-06T18:38:33.280Z,100190.26
2019-02-06T18:41:03.828Z,100182.61
2019-02-06T18:43:34.249Z,100177.00
2019-02-06T18:46:04.748Z,100177.12
2019-02-06T18:48:36.119Z,100175.96
2019-02-06T18:51:06.751Z,100174.31
2019-02-06T18:53:37.301Z,100167.45
2019-02-06T18:56:10.935Z,100155.89
2019-02-06T18:58:41.330Z,100147.75
2019-02-06T19:01:11.808Z,100154.68
2019-02-06T19:03:46.346Z,100147.38
2019-02-06T19:06:18.945Z,100153.09
2019-02-06T19:08:49.214Z,100148.41
2019-02-06T19:11:19.884Z,100151.94
2019-02-06T19:13:50.332Z,100143.40
2019-02-06T19:16:21.107Z,100136.47
2019-02-06T19:18:55.459Z,100130.03
2019-02-06T19:21:31.521Z,100124.03
2019-02-06T19:24:02.115Z,100131.57
2019-02-06T19:26:32.647Z,100130.32
2019-02-06T19:29:03.217Z,100129.97
2019-02-06T19:31:33.843Z,100130.86
2019-02-06T19:34:06.939Z,100126.09
2019-02-06T19:36:37.308Z,100127.90
2019-02-06T19:39:10.790Z,100120.62
2019-02-06T19:41:41.235Z,100121.06
2019-02-06T19:44:11.648Z,100116.71
2019-02-06T19:46:42.140Z,100111.59
2019-02-06T19:49:13.209Z,100113.40
2019-02-06T19:51:43.857Z,100103.91
2019-02-06T19:54:14.315Z,100098.72
2019-02-06T19:56:44.812Z,100103.09
2019-02-06T19:59:15.289Z,100104.80
2019-02-06T20:01:45.821Z,100094.47
2019-02-06T20:04:16.686Z,100085.80
2019-02-06T20:06:47.159Z,100078.55
2019-02-06T20:09:17.569Z,100084.22
2019-02-06T20:11:47.979Z,100082.95
2019-02-06T20:14:18.416Z,100072.18
2019-02-06T20:16:48.845Z,100077.42
2019-02-06T20:19:20.777Z,100065.82
2019-02-06T20:21:51.211Z,100065.75
2019-02-06T20:24:21.604Z,100061.48
2019-02-06T20:26:51.974Z,100058.48
2019-02-06T20:29:22.464Z,100046.39
2019-02-06T20:31:52.901Z,100042.56
2019-02-06T20:34:23.238Z,100048.59
2019-02-06T20:37:11.767Z,100039.15
2019-02-06T20:39:56.962Z,100042.56
2019-02-06T20:42:44.589Z,100037.83
2019-02-06T20:45:15.831Z,100027.53
2019-02-06T20:47:46.332Z,100025.39
2019-02-06T20:50:24.785Z,100030.14
2019-02-06T20:52:55.394Z,100025.45
2019-02-06T20:55:25.828Z,100022.91
2019-02-06T20:57:56.676Z,100015.14
2019-02-06T21:00:29.155Z,100016.01
2019-02-06T21:02:59.933Z,100010.00
2019-02-06T21:05:30.500Z,100007.41
2019-02-06T21:08:01.291Z,100007.46
2019-02-06T21:10:32.924Z,100009.65
2019-02-06T21:13:03.329Z,100001.97
2019-02-06T21:15:37.384Z,99995.89
2019-02-06T21:18:08.725Z,99990.36
2019-02-06T21:20:40.126Z,99996.39
2019-02-06T21:23:11.176Z,99994.69
2019-02-06T21:25:42.489Z,99987.34
2019-02-06T21:28:13.004Z,99985.59
2019-02-06T21:30:43.616Z,99983.92
2019-02-06T21:33:14.708Z,99983.92
2019-02-06T21:35:48.431Z,99985.22
2019-02-06T21:38:18.887Z,99977.48
2019-02-06T21:40:49.312Z,99975.71
2019-02-06T21:43:19.916Z,99976.30
2019-02-06T21:45:50.267Z,99968.52
2019-02-06T21:48:22.352Z,99966.83
2019-02-06T21:50:52.830Z,99968.15
2019-02-06T21:53:23.276Z,99967.28
2019-02-06T21:55:53.722Z,99972.95
2019-02-06T21:58:24.102Z,99965.63
2019-02-06T22:00:54.475Z,99965.13
2019-02-06T22:03:32.478Z,99955.60
2019-02-06T22:06:04.916Z,99955.63
2019-02-06T22:08:35.680Z,99945.80
2019-02-06T22:11:06.138Z,99944.03
2019-02-06T22:13:36.888Z,99938.81
2019-02-06T22:16:07.675Z,99937.47
2019-02-06T22:18:38.105Z,99934.12
2019-02-06T22:21:08.540Z,99934.50
2019-02-06T22:23:39.271Z,99924.13
2019-02-06T22:26:10.307Z,99925.48
2019-02-06T22:28:43.870Z,99930.66
2019-02-06T22:31:14.615Z,99917.73
2019-02-06T22:33:45.072Z,99911.61
2019-02-06T22:36:15.899Z,99905.20
2019-02-06T22:38:46.335Z,99904.34
2019-02-06T22:41:16.759Z,99903.00
2019-02-06T22:43:48.389Z,99901.32
2019-02-06T22:46:19.524Z,99893.14
2019-02-06T22:48:49.884Z,99893.65
2019-02-06T22:51:20.365Z,99889.86
2019-02-06T22:53:50.934Z,99883.89
2019-02-06T22:56:21.536Z,99874.77
2019-02-06T22:58:52.027Z,99868.34
2019-02-06T23:01:32.837Z,99861.52
2019-02-06T23:04:03.647Z,99867.94
2019-02-06T23:06:34.285Z,99861.05
2019-02-06T23:09:07.382Z,99856.72
2019-02-06T23:11:37.870Z,99850.27
2019-02-06T23:14:17.106Z,99847.68
2019-02-06T23:16:43.281Z,99839.91
2019-02-06T23:19:13.743Z,99843.00
2019-02-06T23:21:44.175Z,99827.11
2019-02-06T23:24:14.702Z,99828.44
2019-02-06T23:26:45.459Z,99823.83
2019-02-06T23:29:15.870Z,99820.40
2019-02-06T23:31:46.292Z,99809.32
2019-02-06T23:34:16.658Z,99802.47
2019-02-06T23:36:47.032Z,99803.74
2019-02-06T23:39:18.375Z,99795.14
2019-02-06T23:41:49.667Z,99793.52
2019-02-06T23:44:28.511Z,99784.52
2019-02-06T23:46:52.232Z,99776.73
2019-02-06T23:49:23.303Z,99771.92
2019-02-06T23:51:53.717Z,99763.39
2019-02-06T23:54:26.387Z,99756.54
2019-02-06T23:56:57.169Z,99762.58
2019-02-06T23:59:27.662Z,99753.61
